createdAt,value
2019-04-30T17:36:15.158Z,49.26
2019-04-30T17:38:44.461Z,48.32
2019-04-30T17:41:13.785Z,48.13
2019-04-30T17:43:43.099Z,48.57
2019-04-30T17:46:12.406Z,50.12
2019-04-30T17:48:41.741Z,50.35
2019-04-30T17:51:11.042Z,49.12
2019-04-30T17:53:41.998Z,49.63
2019-04-30T17:56:11.302Z,50.06
2019-04-30T17:58:40.634Z,49.92
2019-04-30T18:01:10.446Z,50.11
2019-04-30T18:03:39.749Z,49.77
2019-04-30T18:06:09.086Z,49.48
2019-04-30T18:10:26.883Z,50.77
2019-04-30T18:12:56.205Z,49.71
2019-04-30T18:15:27.143Z,51.18
2019-04-30T18:17:58.120Z,51.02
2019-04-30T18:20:39.201Z,53.00
2019-04-30T18:23:26.368Z,52.60
2019-04-30T18:28:39.906Z,54.35
2019-04-30T18:31:10.808Z,54.50
2019-04-30T18:33:41.741Z,54.94
2019-04-30T18:36:13.125Z,54.83
2019-04-30T18:38:44.054Z,53.24
2019-04-30T18:41:14.967Z,53.55
2019-04-30T18:43:45.888Z,55.25
2019-04-30T18:46:16.921Z,55.11
2019-04-30T18:48:49.696Z,55.29
2019-04-30T18:51:35.870Z,56.45
2019-04-30T18:53:53.327Z,56.24
2019-04-30T18:56:24.278Z,57.35
2019-04-30T18:58:55.352Z,56.83
2019-04-30T19:01:26.286Z,57.42
2019-04-30T19:03:58.448Z,56.65
2019-04-30T19:06:29.901Z,57.30
2019-04-30T19:09:19.680Z,57.82
2019-04-30T19:12:11.242Z,58.00
2019-04-30T19:14:52.917Z,59.02
2019-04-30T19:17:31.516Z,58.94
2019-04-30T19:20:16.020Z,58.90
2019-04-30T19:22:46.953Z,59.27
2019-04-30T19:25:19.085Z,59.44
2019-04-30T19:27:50.174Z,59.25
2019-04-30T19:30:21.073Z,59.67
2019-04-30T19:32:51.979Z,60.26
2019-04-30T19:35:22.900Z,59.36
2019-04-30T19:37:53.846Z,60.17
2019-04-30T19:40:24.750Z,60.33
2019-04-30T19:42:55.703Z,60.09
2019-04-30T19:45:26.608Z,59.93
2019-04-30T19:47:58.655Z,60.08
2019-04-30T19:50:29.713Z,60.72
2019-04-30T19:53:00.622Z,60.43
2019-04-30T19:55:31.567Z,60.61
2019-04-30T19:58:02.496Z,61.58
2019-04-30T20:00:33.857Z,60.69
2019-04-30T20:03:04.768Z,61.36
2019-04-30T20:05:35.704Z,61.21
2019-04-30T20:08:06.621Z,61.74
2019-04-30T20:10:39.715Z,60.82
2019-04-30T20:13:10.923Z,60.81
2019-04-30T20:15:41.949Z,60.02
2019-04-30T20:18:13.093Z,59.97
2019-04-30T20:20:45.682Z,61.08
2019-04-30T20:23:16.602Z,60.53
2019-04-30T20:25:47.515Z,60.75
2019-04-30T20:28:18.436Z,61.14
2019-04-30T20:30:49.356Z,61.95
2019-04-30T20:33:20.275Z,62.05
2019-04-30T20:35:51.186Z,62.42
2019-04-30T20:38:27.244Z,62.91
2019-04-30T20:41:02.778Z,63.19
2019-04-30T20:43:30.815Z,63.05
2019-04-30T20:46:01.734Z,62.65
2019-04-30T20:48:33.717Z,62.93
2019-04-30T20:51:04.632Z,62.25
2019-04-30T20:53:35.542Z,63.08
2019-04-30T20:56:06.442Z,63.04
2019-04-30T20:58:39.098Z,62.79
2019-04-30T21:01:10.186Z,62.73
2019-04-30T21:03:41.088Z,63.47
2019-04-30T21:06:12.012Z,63.05
2019-04-30T21:08:42.926Z,63.35
2019-04-30T21:11:13.826Z,64.05
2019-04-30T21:13:44.732Z,64.44
2019-04-30T21:16:15.707Z,64.71
2019-04-30T21:18:46.614Z,64.84
2019-04-30T21:21:18.862Z,65.52
2019-04-30T21:23:50.142Z,65.71
2019-04-30T21:26:21.047Z,65.60
2019-04-30T21:28:51.952Z,65.41
2019-04-30T21:31:30.278Z,66.22
2019-04-30T21:34:19.608Z,65.98
2019-04-30T21:36:50.596Z,66.42
2019-04-30T21:39:21.497Z,67.60
2019-04-30T21:41:52.435Z,66.96
2019-04-30T21:44:23.374Z,67.19
2019-04-30T21:46:54.298Z,67.50
2019-04-30T21:49:25.227Z,68.05
2019-04-30T21:51:56.186Z,67.29
2019-04-30T21:54:28.345Z,67.25
2019-04-30T21:56:59.701Z,67.47
2019-04-30T21:59:30.635Z,68.39
2019-04-30T22:02:02.009Z,68.33
2019-04-30T22:04:33.987Z,68.11
2019-04-30T22:07:04.891Z,68.17
2019-04-30T22:09:35.891Z,68.18
2019-04-30T22:12:06.793Z,68.11
2019-04-30T22:14:37.726Z,69.12
2019-04-30T22:17:09.311Z,68.75
2019-04-30T22:19:40.252Z,69.55
2019-04-30T22:22:11.157Z,70.21
2019-04-30T22:24:42.072Z,70.16
2019-04-30T22:27:13.005Z,71.24
2019-04-30T22:29:43.905Z,71.41
2019-04-30T22:32:14.824Z,71.10
2019-04-30T22:34:45.723Z,70.90
2019-04-30T22:37:16.658Z,71.63
2019-04-30T22:39:54.844Z,71.88
2019-04-30T22:42:30.864Z,71.73
2019-04-30T22:45:02.489Z,72.34
2019-04-30T22:47:34.766Z,72.51
2019-04-30T22:50:07.479Z,72.85
2019-04-30T22:52:38.387Z,72.86
2019-04-30T22:55:09.366Z,73.15
2019-04-30T22:57:40.275Z,72.78
2019-04-30T23:00:12.816Z,72.67
2019-04-30T23:02:48.412Z,72.98
2019-04-30T23:05:19.332Z,72.81
2019-04-30T23:07:50.255Z,73.68
2019-04-30T23:10:21.162Z,73.29
2019-04-30T23:12:52.068Z,73.38
2019-04-30T23:15:23.157Z,73.62
2019-04-30T23:17:54.066Z,74.15
2019-04-30T23:20:25.072Z,74.06
2019-04-30T23:22:55.990Z,73.87
2019-04-30T23:25:26.894Z,74.47
2019-04-30T23:27:57.803Z,75.22
2019-04-30T23:30:28.992Z,74.79
2019-04-30T23:32:59.900Z,74.60
2019-04-30T23:35:30.809Z,75.02
2019-04-30T23:38:01.750Z,74.87
2019-04-30T23:40:52.488Z,74.96
2019-04-30T23:43:23.542Z,74.95
2019-04-30T23:45:54.456Z,75.13
2019-04-30T23:48:25.393Z,74.54
2019-04-30T23:50:56.300Z,74.78
2019-04-30T23:53:27.234Z,75.25
2019-04-30T23:55:58.203Z,76.20
2019-04-30T23:58:29.180Z,76.12
